createdAt,value
2022-12-12T00:00:13.659Z,55.40
2022-12-12T00:01:13.641Z,55.90
2022-12-12T00:02:13.706Z,53.70
2022-12-12T00:03:13.754Z,53.20
2022-12-12T00:04:13.605Z,53.60
2022-12-12T00:05:13.946Z,55.00
2022-12-12T00:06:13.568Z,55.80
2022-12-12T00:07:13.555Z,55.60
2022-12-12T00:08:13.607Z,56.80
2022-12-12T00:09:13.522Z,55.50
2022-12-12T00:10:13.508Z,57.40
2022-12-12T00:11:13.495Z,56.60
2022-12-12T00:12:13.477Z,54.40
2022-12-12T00:13:13.465Z,54.50
2022-12-12T00:14:13.448Z,56.60
2022-12-12T00:15:13.805Z,54.60
2022-12-12T00:16:13.464Z,54.90
2022-12-12T00:17:13.403Z,55.60
2022-12-12T00:18:13.390Z,58.50
2022-12-12T00:19:13.374Z,58.90
2022-12-12T00:20:13.365Z,58.20
2022-12-12T00:21:13.347Z,57.00
2022-12-12T00:22:13.332Z,58.50
2022-12-12T00:23:13.456Z,60.00
2022-12-12T00:24:13.299Z,58.30
2022-12-12T00:25:13.527Z,56.60
2022-12-12T00:26:13.266Z,58.50
2022-12-12T00:27:13.254Z,60.10
2022-12-12T00:28:13.241Z,62.80
2022-12-12T00:29:13.386Z,62.00
2022-12-12T00:30:13.206Z,59.40
2022-12-12T00:31:13.228Z,57.10
2022-12-12T00:32:13.179Z,57.50
2022-12-12T00:33:13.166Z,59.10
2022-12-12T00:34:13.146Z,56.70
2022-12-12T00:35:13.341Z,60.90
2022-12-12T00:36:13.118Z,63.60
2022-12-12T00:37:13.100Z,61.20
2022-12-12T00:38:13.087Z,62.30
2022-12-12T00:39:18.143Z,65.20
2022-12-12T00:40:13.057Z,64.10
2022-12-12T00:41:13.041Z,64.30
2022-12-12T00:42:13.034Z,66.40
2022-12-12T00:43:13.012Z,67.30
2022-12-12T00:44:12.998Z,69.50
2022-12-12T00:45:13.158Z,64.30
2022-12-12T00:46:12.993Z,66.70
2022-12-12T00:47:12.952Z,66.20
2022-12-12T00:48:12.944Z,69.30
2022-12-12T00:49:12.920Z,69.80
2022-12-12T00:50:12.906Z,66.20
2022-12-12T00:51:12.891Z,71.20
2022-12-12T00:52:12.871Z,70.20
2022-12-12T00:53:12.859Z,71.60
2022-12-12T00:54:12.839Z,73.60
2022-12-12T00:55:13.049Z,73.10
2022-12-12T00:56:12.816Z,70.60
2022-12-12T00:57:12.798Z,70.20
2022-12-12T00:58:12.783Z,72.40
2022-12-12T00:59:12.769Z,75.20
2022-12-12T01:00:12.755Z,76.40
2022-12-12T01:01:12.808Z,76.20
2022-12-12T01:02:12.721Z,75.10
2022-12-12T01:03:12.766Z,73.90
2022-12-12T01:04:12.717Z,76.90
2022-12-12T01:05:12.873Z,73.80
2022-12-12T01:06:12.672Z,75.70
2022-12-12T01:07:12.648Z,74.90
2022-12-12T01:08:12.655Z,76.80
2022-12-12T01:09:12.611Z,76.00
2022-12-12T01:10:12.601Z,73.90
2022-12-12T01:11:12.583Z,73.70
2022-12-12T01:12:12.574Z,75.10
2022-12-12T01:13:12.559Z,73.70
2022-12-12T01:14:12.549Z,75.50
2022-12-12T01:15:12.898Z,76.60
2022-12-12T01:16:12.600Z,76.30
2022-12-12T01:17:12.493Z,77.40
2022-12-12T01:18:12.476Z,80.60
2022-12-12T01:19:12.874Z,74.60
2022-12-12T01:20:12.451Z,77.90
2022-12-12T01:21:12.432Z,76.80
2022-12-12T01:22:12.497Z,73.10
2022-12-12T01:23:12.402Z,74.50
2022-12-12T01:24:12.387Z,78.00
2022-12-12T01:25:12.548Z,72.90
2022-12-12T01:26:12.354Z,74.30
2022-12-12T01:27:12.341Z,77.40
2022-12-12T01:28:12.327Z,79.00
2022-12-12T01:29:12.312Z,75.80
2022-12-12T01:30:12.304Z,72.90
2022-12-12T01:31:12.326Z,80.00
2022-12-12T01:32:12.266Z,80.10
2022-12-12T01:33:12.344Z,77.30
2022-12-12T01:34:12.236Z,74.50
2022-12-12T01:35:12.683Z,70.80
2022-12-12T01:36:12.200Z,73.80
2022-12-12T01:37:12.203Z,70.90
2022-12-12T01:38:12.182Z,73.80
2022-12-12T01:39:12.158Z,71.10
2022-12-12T01:40:12.145Z,71.90
2022-12-12T01:41:12.127Z,75.00
2022-12-12T01:42:12.111Z,69.60
2022-12-12T01:43:12.103Z,70.10
2022-12-12T01:44:12.082Z,70.40
2022-12-12T01:45:12.363Z,72.80
2022-12-12T01:46:12.100Z,72.20
2022-12-12T01:47:12.037Z,71.40
2022-12-12T01:48:12.038Z,74.50
2022-12-12T01:49:12.005Z,76.40
2022-12-12T01:50:11.991Z,76.90
2022-12-12T01:51:11.975Z,77.60
2022-12-12T01:52:11.959Z,74.70
2022-12-12T01:53:11.942Z,84.30
2022-12-12T01:54:11.928Z,75.90
2022-12-12T01:55:12.228Z,78.90
2022-12-12T01:56:11.898Z,83.50
2022-12-12T01:57:11.883Z,81.10
2022-12-12T01:58:11.870Z,87.10
2022-12-12T01:59:11.853Z,87.60
2022-12-12T02:00:11.834Z,83.10
2022-12-12T02:01:11.873Z,84.80
2022-12-12T02:02:11.844Z,87.50
2022-12-12T02:03:11.799Z,97.40
2022-12-12T02:04:11.778Z,95.50
2022-12-12T02:05:11.967Z,95.20
2022-12-12T02:06:11.747Z,97.60
2022-12-12T02:07:11.732Z,92.50
2022-12-12T02:08:11.763Z,98.70
2022-12-12T02:09:11.700Z,98.00
2022-12-12T02:10:11.682Z,97.60
2022-12-12T02:11:11.668Z,95.90
2022-12-12T02:12:11.653Z,102.70
2022-12-12T02:13:11.637Z,102.60
2022-12-12T02:14:11.629Z,99.30
2022-12-12T02:15:11.945Z,100.90
2022-12-12T02:16:11.623Z,98.80
2022-12-12T02:17:11.577Z,103.90
2022-12-12T02:18:12.961Z,107.20
2022-12-12T02:19:11.555Z,106.20
2022-12-12T02:20:11.534Z,103.10
2022-12-12T02:21:11.515Z,108.20
2022-12-12T02:22:11.504Z,109.10
2022-12-12T02:23:11.488Z,102.90
2022-12-12T02:24:11.472Z,112.40
2022-12-12T02:25:11.691Z,110.80
2022-12-12T02:26:11.459Z,110.30
2022-12-12T02:27:11.424Z,108.80
2022-12-12T02:28:11.408Z,112.50
2022-12-12T02:29:11.397Z,117.90
2022-12-12T02:30:11.385Z,103.10
2022-12-12T02:31:11.403Z,111.00
2022-12-12T02:32:11.355Z,113.60
2022-12-12T02:33:11.334Z,106.60
2022-12-12T02:34:11.316Z,106.10
2022-12-12T02:35:11.535Z,102.90
2022-12-12T02:36:11.286Z,107.20
2022-12-12T02:37:11.271Z,105.50
2022-12-12T02:38:11.258Z,101.90
2022-12-12T02:39:11.243Z,104.70
2022-12-12T02:40:11.227Z,104.00
2022-12-12T02:41:11.212Z,106.00
2022-12-12T02:42:11.203Z,100.10
2022-12-12T02:43:11.185Z,101.40
2022-12-12T02:44:11.166Z,100.00
2022-12-12T02:45:11.445Z,104.50
2022-12-12T02:46:11.191Z,102.70
2022-12-12T02:47:11.119Z,105.80
2022-12-12T02:48:11.107Z,105.40
2022-12-12T02:49:11.090Z,102.40
2022-12-12T02:50:11.074Z,107.70
2022-12-12T02:51:11.059Z,101.70
2022-12-12T02:52:11.052Z,110.50
2022-12-12T02:53:11.029Z,103.80
2022-12-12T02:54:11.015Z,109.50
2022-12-12T02:55:11.513Z,112.00
2022-12-12T02:56:10.986Z,112.90
2022-12-12T02:57:10.970Z,109.80
2022-12-12T02:58:10.953Z,109.80
2022-12-12T02:59:10.939Z,114.30
2022-12-12T03:00:10.928Z,117.00
2022-12-12T03:01:10.959Z,114.70
2022-12-12T03:02:10.954Z,117.70
2022-12-12T03:03:10.878Z,117.40
2022-12-12T03:04:10.862Z,122.50
2022-12-12T03:05:11.246Z,113.80
2022-12-12T03:06:10.834Z,123.10
2022-12-12T03:07:10.819Z,126.10
2022-12-12T03:08:10.883Z,122.00
2022-12-12T03:09:10.793Z,127.80
2022-12-12T03:10:10.775Z,126.50
2022-12-12T03:11:10.758Z,133.80
2022-12-12T03:12:10.744Z,126.20
2022-12-12T03:13:10.727Z,122.50
2022-12-12T03:14:10.711Z,128.00
2022-12-12T03:15:11.043Z,121.90
2022-12-12T03:16:10.738Z,125.80
2022-12-12T03:17:10.667Z,133.30
2022-12-12T03:18:10.699Z,127.90
2022-12-12T03:19:10.636Z,119.70
2022-12-12T03:20:10.621Z,115.80
2022-12-12T03:21:10.607Z,132.40
2022-12-12T03:22:10.595Z,121.50
2022-12-12T03:23:10.578Z,129.30
2022-12-12T03:24:10.563Z,122.20
2022-12-12T03:25:10.830Z,125.70
2022-12-12T03:26:10.529Z,122.10
2022-12-12T03:27:10.525Z,123.80
2022-12-12T03:28:10.499Z,119.30
2022-12-12T03:29:10.490Z,120.30
2022-12-12T03:30:10.468Z,119.20
2022-12-12T03:31:10.519Z,111.90
2022-12-12T03:32:10.441Z,114.30
2022-12-12T03:33:10.422Z,115.30
2022-12-12T03:34:10.408Z,110.60
2022-12-12T03:35:10.565Z,107.80
2022-12-12T03:36:10.382Z,114.10
2022-12-12T03:37:10.363Z,110.10
2022-12-12T03:38:10.350Z,107.00
2022-12-12T03:39:10.334Z,105.90
2022-12-12T03:40:10.324Z,103.90
2022-12-12T03:41:10.304Z,105.50
2022-12-12T03:42:10.294Z,98.80
2022-12-12T03:43:10.276Z,103.80
2022-12-12T03:44:10.258Z,105.30
2022-12-12T03:45:10.776Z,99.80
2022-12-12T03:46:10.277Z,102.70
2022-12-12T03:47:10.211Z,99.60
2022-12-12T03:48:10.209Z,95.10
2022-12-12T03:49:10.183Z,103.10
2022-12-12T03:50:10.172Z,95.60
2022-12-12T03:51:10.150Z,96.30
2022-12-12T03:52:10.143Z,96.20
2022-12-12T03:53:10.124Z,100.80
2022-12-12T03:54:10.112Z,98.00
2022-12-12T03:55:10.612Z,98.20
2022-12-12T03:56:10.080Z,92.10
2022-12-12T03:57:10.069Z,93.60
2022-12-12T03:58:10.049Z,98.00
2022-12-12T03:59:10.034Z,97.40
2022-12-12T04:00:10.031Z,92.40
2022-12-12T04:01:10.051Z,97.10
2022-12-12T04:02:10.034Z,90.90
2022-12-12T04:03:09.976Z,88.10
2022-12-12T04:04:09.964Z,85.30
2022-12-12T04:05:10.129Z,88.40
2022-12-12T04:06:09.935Z,85.50
2022-12-12T04:07:09.913Z,85.50
2022-12-12T04:08:09.945Z,86.60
2022-12-12T04:09:09.882Z,84.70
2022-12-12T04:10:09.870Z,80.70
2022-12-12T04:11:09.861Z,82.40
2022-12-12T04:12:09.839Z,83.70
2022-12-12T04:13:09.892Z,85.50
2022-12-12T04:14:09.808Z,84.30
2022-12-12T04:15:09.906Z,84.60
2022-12-12T04:16:09.848Z,82.80
2022-12-12T04:17:09.763Z,81.70
2022-12-12T04:18:09.749Z,84.00
2022-12-12T04:19:09.735Z,80.20
2022-12-12T04:20:09.763Z,73.70
2022-12-12T04:21:09.716Z,74.60
2022-12-12T04:22:12.870Z,78.60
2022-12-12T04:23:09.675Z,75.10
2022-12-12T04:24:09.663Z,71.80
2022-12-12T04:25:09.773Z,70.50
2022-12-12T04:26:09.630Z,70.20
2022-12-12T04:27:09.618Z,69.90
2022-12-12T04:28:09.608Z,62.00
2022-12-12T04:29:09.601Z,63.80
2022-12-12T04:30:09.583Z,70.30
2022-12-12T04:31:09.562Z,65.30
2022-12-12T04:32:09.662Z,65.80
2022-12-12T04:33:09.528Z,63.70
2022-12-12T04:34:09.515Z,58.80
2022-12-12T04:35:09.499Z,62.10
2022-12-12T04:36:09.500Z,60.70
2022-12-12T04:37:09.468Z,62.40
2022-12-12T04:38:09.455Z,59.60
2022-12-12T04:39:09.536Z,58.60
2022-12-12T04:40:09.423Z,62.10
2022-12-12T04:41:09.415Z,56.20
2022-12-12T04:42:09.413Z,60.50
2022-12-12T04:43:09.380Z,53.80
2022-12-12T04:44:09.370Z,60.80
2022-12-12T04:45:09.346Z,56.90
2022-12-12T04:46:09.395Z,56.40
2022-12-12T04:47:09.323Z,53.30
2022-12-12T04:48:09.306Z,52.60
2022-12-12T04:49:09.289Z,57.90
2022-12-12T04:50:09.277Z,49.40
2022-12-12T04:51:09.260Z,51.40
2022-12-12T04:52:09.245Z,47.30
2022-12-12T04:53:13.328Z,47.00
2022-12-12T04:54:09.216Z,48.50
2022-12-12T04:55:09.199Z,53.60
2022-12-12T04:56:09.184Z,46.80
2022-12-12T04:57:09.171Z,46.70
2022-12-12T04:58:09.169Z,47.10
2022-12-12T04:59:09.139Z,47.10
2022-12-12T05:00:09.142Z,45.90
2022-12-12T05:01:09.171Z,45.70
2022-12-12T05:02:09.127Z,42.10
2022-12-12T05:03:09.087Z,40.40
2022-12-12T05:04:09.073Z,38.40
2022-12-12T05:05:09.047Z,37.30
2022-12-12T05:06:09.045Z,38.20
2022-12-12T05:07:09.054Z,39.60
2022-12-12T05:08:09.044Z,38.20
2022-12-12T05:09:08.990Z,37.00
2022-12-12T05:10:08.979Z,36.90
2022-12-12T05:11:08.974Z,39.90
2022-12-12T05:12:08.947Z,35.20
2022-12-12T05:13:08.935Z,34.70
2022-12-12T05:14:08.914Z,37.70
2022-12-12T05:15:08.902Z,35.50
2022-12-12T05:16:08.888Z,37.30
2022-12-12T05:17:08.870Z,32.70
2022-12-12T05:18:08.857Z,29.90
2022-12-12T05:19:08.849Z,30.20
2022-12-12T05:20:08.834Z,29.10
2022-12-12T05:21:08.814Z,32.70
2022-12-12T05:22:08.797Z,30.70
2022-12-12T05:23:08.787Z,28.70
2022-12-12T05:24:08.767Z,25.70
2022-12-12T05:25:08.756Z,26.90
2022-12-12T05:26:08.741Z,25.80
2022-12-12T05:27:08.723Z,26.10
2022-12-12T05:28:08.724Z,26.70
2022-12-12T05:29:08.694Z,24.70
2022-12-12T05:30:08.693Z,23.20
2022-12-12T05:31:08.705Z,24.30
2022-12-12T05:32:08.651Z,23.80
2022-12-12T05:33:08.639Z,21.10
2022-12-12T05:34:08.915Z,21.90
2022-12-12T05:35:08.602Z,21.50
2022-12-12T05:36:08.592Z,20.70
2022-12-12T05:37:08.599Z,21.10
2022-12-12T05:38:08.558Z,21.20
2022-12-12T05:39:08.547Z,21.30
2022-12-12T05:40:08.528Z,22.90
2022-12-12T05:41:08.518Z,22.50
2022-12-12T05:42:08.500Z,19.40
2022-12-12T05:43:08.486Z,20.60
2022-12-12T05:44:08.481Z,20.20
2022-12-12T05:45:08.453Z,19.10
2022-12-12T05:46:08.501Z,19.90
2022-12-12T05:47:08.427Z,17.20
2022-12-12T05:48:08.417Z,17.90
2022-12-12T05:49:08.390Z,20.20
2022-12-12T05:50:08.384Z,18.30
2022-12-12T05:51:08.363Z,18.50
2022-12-12T05:52:08.354Z,20.40
2022-12-12T05:53:08.336Z,18.80
2022-12-12T05:54:08.321Z,18.90
2022-12-12T05:55:08.308Z,17.10
2022-12-12T05:56:08.294Z,20.10
2022-12-12T05:57:08.272Z,18.10
2022-12-12T05:58:08.259Z,17.20
2022-12-12T05:59:08.250Z,15.30
2022-12-12T06:00:08.232Z,17.70
2022-12-12T06:01:08.216Z,17.80
2022-12-12T06:02:08.217Z,16.50
2022-12-12T06:03:08.187Z,18.10
2022-12-12T06:04:08.240Z,16.90
2022-12-12T06:05:08.165Z,16.60
2022-12-12T06:06:08.145Z,17.30
2022-12-12T06:07:08.135Z,16.70
2022-12-12T06:08:08.140Z,17.10
2022-12-12T06:09:08.092Z,15.30
2022-12-12T06:10:08.078Z,18.20
2022-12-12T06:11:08.066Z,16.60
2022-12-12T06:12:08.049Z,16.50
2022-12-12T06:13:08.036Z,17.70
2022-12-12T06:14:08.017Z,16.90
2022-12-12T06:15:08.004Z,16.40
2022-12-12T06:16:08.047Z,15.30
2022-12-12T06:17:07.980Z,14.70
2022-12-12T06:18:07.968Z,15.80
2022-12-12T06:19:07.947Z,15.00
2022-12-12T06:20:07.936Z,16.40
2022-12-12T06:21:07.912Z,16.70
2022-12-12T06:22:07.911Z,16.30
2022-12-12T06:23:07.883Z,14.20
2022-12-12T06:24:07.876Z,13.70
2022-12-12T06:25:07.857Z,14.60
2022-12-12T06:26:07.839Z,13.30
2022-12-12T06:27:07.825Z,15.30
2022-12-12T06:28:07.837Z,13.00
2022-12-12T06:29:07.791Z,12.60
2022-12-12T06:30:07.776Z,13.50
2022-12-12T06:31:11.453Z,14.70
2022-12-12T06:32:07.754Z,14.50
2022-12-12T06:33:07.731Z,14.80
2022-12-12T06:34:07.719Z,14.60
2022-12-12T06:35:07.706Z,14.50
2022-12-12T06:36:07.687Z,15.20
2022-12-12T06:37:08.490Z,16.30
2022-12-12T06:38:07.693Z,15.10
2022-12-12T06:39:07.643Z,14.80
2022-12-12T06:40:07.629Z,14.00
2022-12-12T06:41:07.624Z,14.50
2022-12-12T06:42:07.600Z,14.20
2022-12-12T06:43:07.581Z,15.00
2022-12-12T06:44:07.572Z,14.20
2022-12-12T06:45:07.553Z,13.20
2022-12-12T06:46:07.574Z,13.90
2022-12-12T06:47:07.523Z,14.00
2022-12-12T06:48:07.505Z,14.70
2022-12-12T06:49:07.493Z,14.00
2022-12-12T06:50:07.480Z,13.70
2022-12-12T06:51:07.466Z,16.00
2022-12-12T06:52:07.448Z,15.80
2022-12-12T06:53:07.432Z,14.80
2022-12-12T06:54:07.415Z,12.80
2022-12-12T06:55:07.404Z,14.60
2022-12-12T06:56:07.385Z,14.60
2022-12-12T06:57:07.369Z,13.20
2022-12-12T06:58:07.363Z,12.90
2022-12-12T06:59:07.342Z,12.50
2022-12-12T07:00:07.329Z,13.80
2022-12-12T07:01:07.363Z,12.90
2022-12-12T07:02:07.294Z,14.60
2022-12-12T07:03:07.322Z,13.60
2022-12-12T07:04:07.272Z,15.20
2022-12-12T07:05:07.250Z,14.50
2022-12-12T07:06:07.236Z,12.60
2022-12-12T07:07:07.220Z,13.30
2022-12-12T07:08:07.239Z,13.70
2022-12-12T07:09:07.191Z,13.30
2022-12-12T07:10:07.173Z,13.50
2022-12-12T07:11:07.163Z,13.30
2022-12-12T07:12:07.154Z,13.60
2022-12-12T07:13:07.130Z,12.70
2022-12-12T07:14:07.115Z,12.50
2022-12-12T07:15:07.102Z,12.70
2022-12-12T07:16:07.175Z,11.70
2022-12-12T07:17:07.066Z,13.40
2022-12-12T07:18:07.058Z,13.10
2022-12-12T07:19:07.044Z,12.40
2022-12-12T07:20:07.033Z,11.20
2022-12-12T07:21:07.012Z,12.70
2022-12-12T07:22:10.103Z,12.10
2022-12-12T07:23:06.980Z,14.10
2022-12-12T07:24:06.969Z,13.40
2022-12-12T07:25:06.952Z,11.80
2022-12-12T07:26:06.936Z,12.00
2022-12-12T07:27:06.964Z,13.50
2022-12-12T07:28:06.903Z,13.60
2022-12-12T07:29:07.029Z,12.60
2022-12-12T07:30:06.876Z,13.20
2022-12-12T07:31:06.914Z,13.00
2022-12-12T07:32:06.852Z,11.80
2022-12-12T07:33:06.829Z,11.70
2022-12-12T07:34:06.814Z,12.30
2022-12-12T07:35:06.801Z,11.70
2022-12-12T07:36:06.782Z,10.40
2022-12-12T07:37:06.777Z,11.20
2022-12-12T07:38:06.765Z,12.30
2022-12-12T07:39:06.740Z,11.30
2022-12-12T07:40:06.722Z,11.60
2022-12-12T07:41:06.707Z,12.90
2022-12-12T07:42:06.690Z,11.60
2022-12-12T07:43:06.682Z,11.00
2022-12-12T07:44:06.668Z,10.50
2022-12-12T07:45:06.654Z,10.40
2022-12-12T07:46:06.659Z,11.10
2022-12-12T07:47:06.621Z,12.10
2022-12-12T07:48:06.607Z,10.40
2022-12-12T07:49:06.588Z,10.50
2022-12-12T07:50:06.576Z,11.10
2022-12-12T07:51:06.719Z,11.20
2022-12-12T07:52:06.549Z,11.60
2022-12-12T07:53:06.527Z,11.10
2022-12-12T07:54:06.521Z,9.90
2022-12-12T07:55:06.500Z,11.00
2022-12-12T07:56:06.555Z,10.70
2022-12-12T07:57:06.514Z,10.30
2022-12-12T07:58:06.451Z,10.80
2022-12-12T07:59:06.565Z,10.10
2022-12-12T08:00:06.426Z,9.70
2022-12-12T08:01:09.857Z,10.20
2022-12-12T08:02:06.462Z,10.60
2022-12-12T08:03:06.375Z,10.10
2022-12-12T08:04:06.360Z,9.80
2022-12-12T08:05:06.399Z,9.90
2022-12-12T08:06:06.339Z,9.40
2022-12-12T08:07:08.668Z,9.40
2022-12-12T08:08:06.364Z,11.60
2022-12-12T08:09:06.287Z,10.40
2022-12-12T08:10:06.275Z,11.10
2022-12-12T08:11:06.257Z,12.00
2022-12-12T08:12:06.247Z,9.20
2022-12-12T08:13:06.226Z,12.40
2022-12-12T08:14:11.218Z,10.60
2022-12-12T08:15:06.201Z,9.70
2022-12-12T08:16:06.268Z,10.60
2022-12-12T08:17:06.167Z,12.50
2022-12-12T08:18:06.153Z,10.60
2022-12-12T08:19:06.137Z,9.80
2022-12-12T08:20:06.120Z,8.80
2022-12-12T08:21:06.105Z,10.50
2022-12-12T08:22:06.091Z,9.80
2022-12-12T08:23:06.077Z,10.50
2022-12-12T08:24:06.061Z,8.40
2022-12-12T08:25:06.048Z,10.00
2022-12-12T08:26:06.031Z,8.30
2022-12-12T08:27:09.550Z,10.10
2022-12-12T08:28:06.000Z,8.90
2022-12-12T08:29:05.984Z,9.20
2022-12-12T08:30:05.969Z,9.60
2022-12-12T08:31:06.006Z,8.30
2022-12-12T08:32:05.937Z,9.70
2022-12-12T08:33:08.192Z,9.40
2022-12-12T08:34:05.911Z,8.30
2022-12-12T08:35:05.896Z,9.70
2022-12-12T08:36:05.879Z,8.40
2022-12-12T08:37:05.867Z,9.10
2022-12-12T08:38:05.854Z,9.50
2022-12-12T08:39:05.838Z,9.90
2022-12-12T08:40:05.819Z,8.90
2022-12-12T08:41:05.803Z,8.50
2022-12-12T08:42:05.788Z,10.30
2022-12-12T08:43:05.772Z,8.60
2022-12-12T08:44:05.762Z,8.90
2022-12-12T08:45:05.744Z,8.30
2022-12-12T08:46:05.847Z,8.50
2022-12-12T08:47:05.745Z,8.50
2022-12-12T08:48:05.704Z,8.60
2022-12-12T08:49:05.686Z,7.90
2022-12-12T08:50:05.670Z,8.50
2022-12-12T08:51:05.655Z,7.90
2022-12-12T08:52:05.640Z,8.80
2022-12-12T08:53:05.626Z,7.90
2022-12-12T08:54:05.612Z,7.80
2022-12-12T08:55:05.596Z,8.10
2022-12-12T08:56:05.580Z,9.30
2022-12-12T08:57:05.569Z,8.70
2022-12-12T08:58:05.552Z,7.90
2022-12-12T08:59:05.537Z,8.00
2022-12-12T09:00:05.521Z,7.50
2022-12-12T09:01:05.510Z,8.10
2022-12-12T09:02:05.629Z,11.50
2022-12-12T09:03:05.544Z,12.30
2022-12-12T09:04:05.467Z,8.00
2022-12-12T09:05:05.441Z,7.30
2022-12-12T09:06:05.433Z,8.90
2022-12-12T09:07:08.638Z,9.00
2022-12-12T09:08:05.431Z,7.30
2022-12-12T09:09:05.396Z,8.10
2022-12-12T09:10:05.374Z,7.60
2022-12-12T09:11:05.356Z,7.20
2022-12-12T09:12:05.341Z,6.90
2022-12-12T09:13:05.324Z,6.80
2022-12-12T09:14:05.315Z,7.40
2022-12-12T09:15:05.382Z,6.70
2022-12-12T09:16:05.342Z,6.50
2022-12-12T09:17:05.275Z,7.00
2022-12-12T09:18:05.252Z,7.90
2022-12-12T09:19:05.239Z,7.30
2022-12-12T09:20:05.224Z,6.90
2022-12-12T09:21:05.215Z,7.30
2022-12-12T09:22:05.196Z,6.60
2022-12-12T09:23:05.178Z,6.40
2022-12-12T09:24:05.166Z,6.60
2022-12-12T09:25:05.147Z,6.20
2022-12-12T09:26:05.149Z,6.40
2022-12-12T09:27:05.119Z,7.00
2022-12-12T09:28:05.104Z,6.80
2022-12-12T09:29:05.088Z,6.40
2022-12-12T09:30:05.074Z,6.40
2022-12-12T09:31:05.118Z,6.20
2022-12-12T09:32:05.044Z,6.30
2022-12-12T09:33:05.031Z,6.30
2022-12-12T09:34:05.013Z,6.20
2022-12-12T09:35:04.998Z,6.00
2022-12-12T09:36:04.990Z,7.10
2022-12-12T09:37:04.975Z,8.60
2022-12-12T09:38:08.239Z,6.90
2022-12-12T09:39:04.942Z,6.30
2022-12-12T09:40:04.925Z,6.50
2022-12-12T09:41:04.917Z,6.70
2022-12-12T09:42:04.895Z,6.30
2022-12-12T09:43:04.882Z,5.60
2022-12-12T09:44:04.871Z,5.40
2022-12-12T09:45:04.848Z,5.90
2022-12-12T09:46:04.876Z,6.20
2022-12-12T09:47:04.822Z,5.50
2022-12-12T09:48:04.806Z,5.50
2022-12-12T09:49:04.796Z,5.70
2022-12-12T09:50:04.775Z,5.30
2022-12-12T09:51:04.765Z,5.30
2022-12-12T09:52:04.749Z,5.20
2022-12-12T09:53:04.727Z,5.20
2022-12-12T09:54:04.723Z,5.60
2022-12-12T09:55:04.702Z,5.60
2022-12-12T09:56:04.689Z,6.10
2022-12-12T09:57:04.671Z,5.50
2022-12-12T09:58:04.661Z,4.90
2022-12-12T09:59:04.643Z,5.00
2022-12-12T10:00:04.628Z,5.20
2022-12-12T10:01:04.668Z,5.10
2022-12-12T10:02:04.652Z,5.10
2022-12-12T10:03:04.580Z,5.30
2022-12-12T10:04:04.566Z,6.00
2022-12-12T10:05:04.551Z,5.10
2022-12-12T10:06:36.115Z,5.80
2022-12-12T10:07:04.519Z,4.80
2022-12-12T10:08:04.543Z,4.20
2022-12-12T10:09:04.491Z,4.50
2022-12-12T10:10:04.477Z,4.30
2022-12-12T10:11:04.462Z,4.80
2022-12-12T10:12:08.035Z,4.90
2022-12-12T10:13:04.434Z,4.80
2022-12-12T10:14:04.418Z,4.80
2022-12-12T10:15:04.406Z,5.10
2022-12-12T10:16:04.406Z,4.60
2022-12-12T10:17:04.372Z,5.00
2022-12-12T10:18:04.357Z,6.50
2022-12-12T10:19:04.346Z,4.80
2022-12-12T10:20:04.331Z,4.90
2022-12-12T10:21:04.392Z,4.60
2022-12-12T10:22:04.301Z,4.80
2022-12-12T10:23:04.283Z,4.40
2022-12-12T10:24:04.266Z,4.60
2022-12-12T10:25:04.254Z,5.10
2022-12-12T10:26:04.236Z,4.40
2022-12-12T10:27:04.223Z,4.90
2022-12-12T10:28:04.207Z,4.70
2022-12-12T10:29:04.194Z,4.50
2022-12-12T10:30:04.181Z,4.80
2022-12-12T10:31:04.165Z,4.60
2022-12-12T10:32:04.196Z,4.20
2022-12-12T10:33:04.133Z,4.60
2022-12-12T10:34:04.115Z,4.20
2022-12-12T10:35:04.109Z,4.50
2022-12-12T10:36:04.089Z,4.70
2022-12-12T10:37:04.068Z,4.60
2022-12-12T10:38:04.058Z,4.40
2022-12-12T10:39:04.043Z,4.60
2022-12-12T10:40:04.028Z,4.10
2022-12-12T10:41:04.032Z,4.20
2022-12-12T10:42:03.997Z,4.20
2022-12-12T10:43:03.981Z,3.90
2022-12-12T10:44:03.968Z,4.40
2022-12-12T10:45:03.950Z,4.20
2022-12-12T10:46:04.090Z,4.30
2022-12-12T10:47:03.979Z,5.10
2022-12-12T10:48:03.905Z,4.50
2022-12-12T10:49:03.889Z,5.30
2022-12-12T10:50:07.431Z,4.80
2022-12-12T10:51:03.862Z,4.60
2022-12-12T10:52:03.847Z,4.70
2022-12-12T10:53:03.833Z,4.70
2022-12-12T10:54:03.820Z,5.20
2022-12-12T10:55:03.798Z,5.00
2022-12-12T10:56:03.787Z,5.20
2022-12-12T10:57:03.770Z,6.00
2022-12-12T10:58:03.757Z,5.30
2022-12-12T10:59:03.738Z,5.50
2022-12-12T11:00:03.725Z,5.60
2022-12-12T11:01:03.734Z,5.80
2022-12-12T11:02:11.245Z,6.20
2022-12-12T11:03:03.777Z,5.70
2022-12-12T11:04:03.663Z,5.50
2022-12-12T11:05:03.647Z,5.30
2022-12-12T11:06:03.637Z,5.20
2022-12-12T11:07:03.616Z,5.40
2022-12-12T11:08:03.683Z,5.30
2022-12-12T11:09:03.586Z,5.40
2022-12-12T11:10:03.575Z,5.30
2022-12-12T11:11:03.557Z,5.40
2022-12-12T11:12:03.549Z,5.50
2022-12-12T11:13:03.527Z,5.10
2022-12-12T11:14:03.510Z,6.00
2022-12-12T11:15:03.494Z,6.40
2022-12-12T11:16:03.532Z,5.40
2022-12-12T11:17:03.558Z,5.00
2022-12-12T11:18:06.359Z,5.60
2022-12-12T11:19:03.433Z,5.10
2022-12-12T11:20:03.423Z,5.20
2022-12-12T11:21:03.407Z,5.10
2022-12-12T11:22:03.390Z,5.30
2022-12-12T11:23:03.379Z,4.90
2022-12-12T11:24:03.362Z,4.60
2022-12-12T11:25:03.352Z,5.00
2022-12-12T11:26:03.334Z,4.60
2022-12-12T11:27:03.316Z,5.10
2022-12-12T11:28:06.563Z,5.10
2022-12-12T11:29:03.318Z,5.00
2022-12-12T11:30:03.271Z,5.70
2022-12-12T11:31:03.256Z,5.50
2022-12-12T11:32:03.288Z,5.70
2022-12-12T11:33:03.225Z,5.30
2022-12-12T11:34:03.213Z,5.90
2022-12-12T11:35:03.197Z,6.00
2022-12-12T11:36:03.183Z,6.40
2022-12-12T11:37:03.173Z,7.40
2022-12-12T11:38:03.155Z,6.50
2022-12-12T11:39:03.136Z,7.00
2022-12-12T11:40:03.125Z,7.60
2022-12-12T11:41:03.113Z,7.50
2022-12-12T11:42:03.093Z,7.30
2022-12-12T11:43:03.077Z,8.10
2022-12-12T11:44:03.063Z,7.50
2022-12-12T11:45:03.049Z,7.50
2022-12-12T11:46:03.076Z,8.30
2022-12-12T11:47:03.018Z,8.30
2022-12-12T11:48:03.004Z,8.40
2022-12-12T11:49:02.996Z,8.60
2022-12-12T11:50:09.331Z,8.30
2022-12-12T11:51:02.966Z,12.60
2022-12-12T11:52:02.944Z,14.20
2022-12-12T11:53:02.932Z,11.00
2022-12-12T11:54:02.913Z,10.10
2022-12-12T11:55:02.897Z,9.60
2022-12-12T11:56:02.882Z,9.40
2022-12-12T11:57:02.866Z,11.20
2022-12-12T11:58:04.080Z,10.50
2022-12-12T11:59:02.839Z,10.90
2022-12-12T12:00:02.829Z,11.00
2022-12-12T12:01:02.819Z,10.50
2022-12-12T12:02:02.792Z,9.80
2022-12-12T12:03:02.844Z,11.30
2022-12-12T12:04:02.833Z,9.80
2022-12-12T12:05:02.748Z,13.50
2022-12-12T12:06:02.732Z,9.60
2022-12-12T12:07:02.719Z,11.00
2022-12-12T12:08:02.752Z,10.10
2022-12-12T12:09:02.687Z,9.10
2022-12-12T12:10:02.669Z,10.00
2022-12-12T12:11:02.658Z,10.10
2022-12-12T12:12:02.643Z,9.90
2022-12-12T12:13:02.628Z,8.30
2022-12-12T12:14:02.613Z,8.40
2022-12-12T12:15:02.595Z,11.60
2022-12-12T12:16:02.592Z,8.80
2022-12-12T12:17:02.633Z,9.10
2022-12-12T12:18:02.552Z,5.90
2022-12-12T12:19:02.537Z,6.30
2022-12-12T12:20:02.524Z,7.90
2022-12-12T12:21:02.506Z,6.60
2022-12-12T12:22:02.493Z,7.90
2022-12-12T12:23:02.478Z,7.10
2022-12-12T12:24:02.463Z,5.40
2022-12-12T12:25:02.450Z,5.10
2022-12-12T12:26:02.431Z,5.20
2022-12-12T12:27:02.417Z,6.00
2022-12-12T12:28:02.401Z,6.60
2022-12-12T12:29:02.387Z,6.10
2022-12-12T12:30:02.371Z,5.60
2022-12-12T12:31:02.395Z,6.40
2022-12-12T12:32:02.338Z,5.50
2022-12-12T12:33:02.354Z,7.20
2022-12-12T12:34:02.309Z,5.50
2022-12-12T12:35:02.299Z,5.60
2022-12-12T12:36:02.279Z,6.50
2022-12-12T12:37:02.264Z,5.80
2022-12-12T12:38:02.249Z,6.40
2022-12-12T12:39:02.253Z,6.10
2022-12-12T12:40:02.237Z,5.30
2022-12-12T12:41:02.214Z,7.00
2022-12-12T12:42:02.194Z,5.20
2022-12-12T12:43:02.179Z,5.50
2022-12-12T12:44:02.159Z,5.70
2022-12-12T12:45:02.157Z,5.30
2022-12-12T12:46:02.155Z,4.60
2022-12-12T12:47:02.114Z,4.20
2022-12-12T12:48:07.240Z,4.40
2022-12-12T12:49:02.084Z,4.50
2022-12-12T12:50:02.069Z,3.90
2022-12-12T12:51:02.054Z,4.10
2022-12-12T12:52:02.053Z,3.80
2022-12-12T12:53:02.037Z,4.10
2022-12-12T12:54:02.023Z,10.90
2022-12-12T12:55:01.997Z,14.60
2022-12-12T12:56:01.986Z,4.00
2022-12-12T12:57:01.973Z,9.10
2022-12-12T12:58:01.951Z,5.50